createdAt,value
2022-09-07T00:01:53.640Z,56.00
2022-09-07T00:04:55.514Z,56.40
2022-09-07T00:07:58.589Z,55.62
2022-09-07T00:11:04.087Z,54.90
2022-09-07T00:14:07.639Z,55.49
2022-09-07T00:17:09.352Z,54.88
2022-09-07T00:20:12.554Z,55.24
2022-09-07T00:23:14.201Z,55.64
2022-09-07T00:26:21.674Z,56.38
2022-09-07T00:29:23.631Z,55.76
2022-09-07T00:32:25.359Z,55.75
2022-09-07T00:35:27.328Z,55.25
2022-09-07T00:38:29.076Z,55.22
2022-09-07T00:41:30.956Z,55.55
2022-09-07T00:45:00.417Z,55.45
2022-09-07T00:48:16.955Z,55.11
2022-09-07T00:51:27.727Z,56.25
2022-09-07T00:54:37.138Z,55.92
2022-09-07T00:57:43.039Z,55.36
2022-09-07T01:00:45.643Z,55.54
2022-09-07T01:03:51.700Z,55.66
2022-09-07T01:06:55.210Z,58.25
2022-09-07T01:09:57.684Z,64.34
2022-09-07T01:13:00.450Z,67.54
2022-09-07T01:16:14.111Z,70.53
2022-09-07T01:19:57.092Z,72.47
2022-09-07T01:23:07.609Z,72.79
2022-09-07T01:26:48.521Z,72.37
2022-09-07T01:30:06.479Z,72.68
2022-09-07T01:33:38.850Z,72.96
2022-09-07T01:36:44.792Z,73.27
2022-09-07T01:39:46.389Z,73.67
2022-09-07T01:42:54.657Z,73.99
2022-09-07T01:46:00.441Z,74.45
2022-09-07T01:49:12.549Z,75.68
2022-09-07T01:52:20.833Z,76.65
2022-09-07T01:55:29.860Z,77.35
2022-09-07T01:58:38.270Z,77.51
2022-09-07T02:02:04.175Z,77.09
2022-09-07T02:05:18.584Z,76.44
2022-09-07T02:08:56.758Z,75.13
2022-09-07T02:12:03.059Z,75.01
2022-09-07T02:15:15.613Z,75.51
2022-09-07T02:18:19.273Z,74.97
2022-09-07T02:21:36.653Z,74.47
2022-09-07T02:24:43.772Z,74.52
2022-09-07T02:27:49.825Z,74.25
2022-09-07T02:30:51.506Z,73.61
2022-09-07T02:33:53.330Z,72.87
2022-09-07T02:36:57.125Z,70.75
2022-09-07T02:40:00.487Z,69.34
2022-09-07T02:43:08.152Z,69.34
2022-09-07T02:46:25.979Z,69.95
2022-09-07T02:49:33.710Z,72.20
2022-09-07T02:52:47.437Z,72.89
2022-09-07T02:55:58.733Z,74.38
2022-09-07T02:59:08.403Z,75.03
2022-09-07T03:02:33.301Z,74.15
2022-09-07T03:05:38.072Z,74.42
2022-09-07T03:08:50.438Z,73.29
2022-09-07T03:11:52.796Z,72.23
2022-09-07T03:14:54.511Z,69.72
2022-09-07T03:17:56.436Z,72.75
2022-09-07T03:20:58.184Z,74.43
2022-09-07T03:23:59.856Z,76.07
2022-09-07T03:27:01.589Z,76.49
2022-09-07T03:30:05.106Z,76.64
2022-09-07T03:33:07.207Z,77.18
2022-09-07T03:36:09.101Z,77.97
2022-09-07T03:39:12.636Z,79.48
2022-09-07T03:42:14.451Z,75.41
2022-09-07T03:45:16.701Z,69.64
2022-09-07T03:48:18.382Z,67.19
2022-09-07T03:51:20.094Z,66.97
2022-09-07T03:54:22.899Z,66.79
2022-09-07T03:57:24.548Z,66.62
2022-09-07T04:00:26.298Z,66.26
2022-09-07T04:03:27.905Z,66.50
2022-09-07T04:06:30.595Z,66.38
2022-09-07T04:09:32.490Z,66.64
2022-09-07T04:12:34.188Z,66.67
2022-09-07T04:15:36.087Z,67.04
2022-09-07T04:18:37.850Z,67.20
2022-09-07T04:21:40.035Z,66.76
2022-09-07T04:24:41.736Z,66.87
2022-09-07T04:27:43.588Z,67.10
2022-09-07T04:30:46.919Z,66.95
2022-09-07T04:33:49.940Z,67.46
2022-09-07T04:36:51.621Z,67.00
2022-09-07T04:39:53.579Z,66.66
2022-09-07T04:42:55.354Z,66.52
2022-09-07T04:45:57.098Z,66.15
2022-09-07T04:49:01.280Z,66.32
2022-09-07T04:52:03.269Z,66.10
2022-09-07T04:55:05.450Z,66.40
2022-09-07T04:58:07.125Z,66.45
2022-09-07T05:01:09.023Z,66.61
2022-09-07T05:04:10.907Z,67.01
2022-09-07T05:07:12.519Z,67.02
2022-09-07T05:10:14.225Z,67.70
2022-09-07T05:13:16.017Z,67.53
2022-09-07T05:16:23.736Z,67.89
2022-09-07T05:19:25.388Z,67.93
2022-09-07T05:22:27.161Z,68.18
2022-09-07T05:25:29.259Z,68.38
2022-09-07T05:28:31.297Z,68.25
2022-09-07T05:31:33.756Z,68.48
2022-09-07T05:34:35.511Z,68.85
2022-09-07T05:37:37.197Z,68.25
2022-09-07T05:40:40.837Z,68.38
2022-09-07T05:47:05.248Z,68.95
2022-09-07T05:50:08.952Z,69.39
2022-09-07T05:53:10.586Z,69.39
2022-09-07T05:56:12.913Z,69.84
2022-09-07T05:59:14.711Z,69.65
2022-09-07T06:02:16.600Z,70.02
2022-09-07T06:05:18.377Z,70.06
2022-09-07T06:08:20.075Z,70.16
2022-09-07T06:11:23.788Z,70.12
2022-09-07T06:14:25.583Z,70.03
2022-09-07T06:17:29.606Z,69.71
2022-09-07T06:20:31.307Z,69.61
2022-09-07T06:23:34.464Z,70.14
2022-09-07T06:26:36.186Z,70.02
2022-09-07T06:29:37.969Z,69.46
2022-09-07T06:35:54.239Z,71.01
2022-09-07T06:38:59.080Z,71.57
2022-09-07T06:42:00.909Z,70.91
2022-09-07T06:45:05.933Z,70.47
2022-09-07T06:48:07.550Z,71.21
2022-09-07T06:51:15.809Z,71.82
2022-09-07T06:57:39.886Z,71.51
2022-09-07T07:00:41.639Z,71.48
2022-09-07T07:03:44.676Z,70.45
2022-09-07T07:06:46.448Z,70.17
2022-09-07T07:09:50.116Z,70.09
2022-09-07T07:12:56.710Z,69.32
2022-09-07T07:16:06.833Z,69.13
2022-09-07T07:19:09.269Z,67.73
2022-09-07T07:25:36.472Z,66.46
2022-09-07T07:32:01.031Z,67.80
2022-09-07T07:35:02.746Z,65.14
2022-09-07T07:48:14.835Z,65.39
2022-09-07T07:51:16.569Z,65.39
2022-09-07T07:54:18.292Z,64.83
2022-09-07T07:57:20.017Z,63.92
2022-09-07T08:00:37.393Z,62.95
2022-09-07T08:03:46.821Z,61.86
2022-09-07T08:06:49.011Z,59.95
2022-09-07T08:09:51.171Z,61.81
2022-09-07T08:12:53.384Z,61.89
2022-09-07T08:15:59.411Z,60.96
2022-09-07T08:19:01.689Z,60.18
2022-09-07T08:22:03.961Z,59.68
2022-09-07T08:25:07.264Z,59.96
2022-09-07T08:28:08.986Z,61.24
2022-09-07T08:31:13.819Z,60.65
2022-09-07T08:34:15.530Z,61.49
2022-09-07T08:37:17.257Z,60.13
2022-09-07T08:40:19.597Z,59.57
2022-09-07T08:43:27.363Z,60.72
2022-09-07T08:46:37.579Z,60.95
2022-09-07T08:49:55.196Z,60.68
2022-09-07T08:53:29.465Z,60.44
2022-09-07T08:56:36.091Z,60.52
2022-09-07T08:59:43.054Z,59.20
2022-09-07T09:02:45.746Z,58.53
2022-09-07T09:06:10.465Z,56.92
2022-09-07T09:09:27.606Z,57.89
2022-09-07T09:12:55.227Z,57.20
2022-09-07T09:16:05.410Z,57.90
2022-09-07T09:19:19.282Z,56.68
2022-09-07T09:22:24.009Z,57.46
2022-09-07T09:25:36.052Z,55.76
2022-09-07T09:28:39.027Z,54.31
2022-09-07T09:31:41.175Z,55.88
2022-09-07T09:35:04.715Z,52.85
2022-09-07T09:38:29.257Z,54.46
2022-09-07T09:41:38.629Z,54.21
2022-09-07T09:44:42.037Z,52.59
2022-09-07T09:47:50.226Z,51.27
2022-09-07T09:54:52.111Z,52.02
2022-09-07T10:01:29.551Z,50.83
2022-09-07T10:04:35.096Z,49.57
2022-09-07T10:07:36.746Z,50.30
2022-09-07T10:10:38.463Z,49.85
2022-09-07T10:13:55.893Z,49.69
2022-09-07T10:16:58.930Z,50.29
2022-09-07T10:20:02.070Z,51.07
2022-09-07T10:23:05.984Z,48.64
2022-09-07T10:26:26.029Z,48.66
2022-09-07T10:29:30.695Z,48.18
2022-09-07T10:32:49.121Z,46.96
2022-09-07T10:36:02.217Z,45.54
2022-09-07T10:39:08.435Z,44.95
2022-09-07T10:42:10.011Z,47.30
2022-09-07T10:45:24.392Z,45.53
2022-09-07T10:48:37.942Z,45.05
2022-09-07T10:52:03.853Z,44.09
2022-09-07T10:55:14.718Z,44.38
2022-09-07T11:02:24.857Z,42.75
2022-09-07T11:05:58.716Z,42.78
2022-09-07T11:09:20.806Z,43.06
2022-09-07T11:12:30.438Z,43.88
2022-09-07T11:15:40.007Z,42.28
2022-09-07T11:22:38.920Z,41.25
2022-09-07T11:26:07.527Z,41.85
2022-09-07T11:29:32.637Z,43.17
2022-09-07T11:32:44.879Z,39.33
2022-09-07T11:36:01.056Z,41.06
2022-09-07T11:39:19.920Z,40.92
2022-09-07T11:42:48.035Z,43.67
2022-09-07T11:45:56.777Z,43.88
2022-09-07T11:48:59.433Z,42.27
2022-09-07T11:52:08.981Z,41.92
2022-09-07T11:55:20.657Z,42.11
2022-09-07T11:58:49.181Z,43.07
2022-09-07T12:01:57.207Z,42.85
2022-09-07T12:05:36.431Z,42.08
2022-09-07T12:09:05.456Z,42.02
2022-09-07T12:12:19.325Z,42.34
2022-09-07T12:15:45.187Z,42.34
2022-09-07T12:19:01.464Z,41.42
2022-09-07T12:22:03.751Z,41.07
2022-09-07T12:25:10.453Z,41.54
2022-09-07T12:28:35.285Z,42.92
2022-09-07T12:32:07.368Z,44.54
2022-09-07T12:35:29.011Z,43.20
2022-09-07T12:38:30.599Z,43.63
2022-09-07T12:41:44.641Z,44.49
2022-09-07T12:44:48.338Z,43.65
2022-09-07T12:47:59.019Z,44.63
2022-09-07T12:51:59.646Z,43.54
2022-09-07T12:55:27.078Z,43.32
2022-09-07T12:59:11.929Z,44.10
2022-09-07T13:02:55.336Z,44.39
2022-09-07T13:06:07.762Z,42.27
2022-09-07T13:09:32.243Z,42.21
2022-09-07T13:12:58.839Z,41.66
2022-09-07T13:16:06.556Z,43.47
2022-09-07T13:19:14.548Z,46.73
2022-09-07T13:22:31.622Z,46.14
2022-09-07T13:25:46.162Z,46.70
2022-09-07T13:29:11.122Z,46.95
2022-09-07T13:33:08.040Z,47.49
2022-09-07T13:35:52.406Z,48.16
2022-09-07T13:38:55.493Z,48.58
2022-09-07T13:42:00.455Z,48.18
2022-09-07T13:45:05.497Z,48.44
2022-09-07T13:48:19.107Z,49.17
2022-09-07T13:51:29.589Z,48.96
2022-09-07T13:55:02.373Z,50.70
2022-09-07T13:58:48.631Z,51.32
2022-09-07T14:01:50.932Z,53.59
2022-09-07T14:04:54.978Z,57.10
2022-09-07T14:07:56.687Z,59.92
2022-09-07T14:10:58.329Z,59.00
2022-09-07T14:14:33.030Z,60.35
2022-09-07T14:17:34.845Z,59.34
2022-09-07T14:20:51.751Z,57.97
2022-09-07T14:23:53.549Z,59.58
2022-09-07T14:26:55.337Z,60.21
2022-09-07T14:30:22.189Z,60.57
2022-09-07T14:33:23.886Z,60.28
2022-09-07T14:36:46.857Z,61.25
2022-09-07T14:39:50.770Z,59.02
2022-09-07T14:42:55.317Z,54.64
2022-09-07T14:46:30.860Z,56.79
2022-09-07T14:49:32.991Z,60.56
2022-09-07T14:52:43.313Z,59.17
2022-09-07T14:56:02.308Z,64.61
2022-09-07T14:59:44.195Z,62.87
2022-09-07T15:02:45.880Z,61.82
2022-09-07T15:05:48.728Z,60.32
2022-09-07T15:08:50.491Z,59.67
2022-09-07T15:12:17.834Z,61.33
2022-09-07T15:15:21.867Z,60.44
2022-09-07T15:18:51.770Z,61.55
2022-09-07T15:21:54.269Z,57.46
2022-09-07T15:24:55.945Z,55.34
2022-09-07T15:27:57.930Z,55.46
2022-09-07T15:34:21.347Z,59.53
2022-09-07T15:41:20.740Z,56.53
2022-09-07T15:44:15.110Z,55.23
2022-09-07T15:50:38.439Z,56.39
2022-09-07T16:00:23.601Z,57.81
2022-09-07T16:03:25.368Z,59.06
2022-09-07T16:06:27.525Z,61.20
2022-09-07T16:09:29.105Z,59.99
2022-09-07T16:15:54.392Z,58.51
2022-09-07T16:18:56.478Z,56.06
2022-09-07T16:21:58.769Z,57.28
2022-09-07T16:25:00.426Z,57.63
2022-09-07T16:28:03.414Z,57.11
2022-09-07T16:31:07.768Z,56.45
2022-09-07T16:34:09.470Z,58.57
2022-09-07T16:37:11.271Z,60.33
2022-09-07T16:40:13.008Z,61.13
2022-09-07T16:43:14.671Z,64.32
2022-09-07T16:46:18.897Z,65.48
2022-09-07T16:49:20.761Z,66.21
2022-09-07T16:52:23.356Z,68.15
2022-09-07T16:55:25.051Z,69.46
2022-09-07T16:58:47.324Z,70.83
2022-09-07T17:01:49.334Z,69.39
2022-09-07T17:04:51.950Z,71.61
2022-09-07T17:07:53.731Z,71.79
2022-09-07T17:11:09.185Z,71.44
2022-09-07T17:14:11.006Z,71.81
2022-09-07T17:17:12.714Z,74.21
2022-09-07T17:20:14.703Z,73.94
2022-09-07T17:23:17.445Z,73.51
2022-09-07T17:26:20.183Z,74.50
2022-09-07T17:29:21.965Z,73.19
2022-09-07T17:32:26.310Z,73.29
2022-09-07T17:35:32.180Z,74.42
2022-09-07T17:41:58.607Z,71.98
2022-09-07T17:45:00.458Z,73.73
2022-09-07T17:48:02.246Z,72.56
2022-09-07T17:51:07.525Z,71.69
2022-09-07T17:54:12.541Z,72.60
2022-09-07T17:57:14.175Z,72.57
2022-09-07T18:00:16.063Z,72.00
2022-09-07T18:03:18.124Z,71.49
2022-09-07T18:06:21.179Z,71.56
2022-09-07T18:09:23.223Z,71.54
2022-09-07T18:12:25.146Z,71.54
2022-09-07T18:15:27.271Z,71.10
2022-09-07T18:18:29.866Z,70.92
2022-09-07T18:21:34.807Z,69.54
2022-09-07T18:24:48.072Z,69.40
2022-09-07T18:29:03.166Z,69.51
2022-09-07T18:31:12.267Z,68.63
2022-09-07T18:34:14.027Z,67.40
2022-09-07T18:37:15.819Z,67.92
2022-09-07T18:40:21.504Z,68.67
2022-09-07T18:43:23.541Z,69.48
2022-09-07T18:46:25.618Z,70.32
2022-09-07T18:49:27.305Z,70.96
2022-09-07T18:55:51.046Z,73.25
2022-09-07T18:58:57.000Z,74.53
2022-09-07T19:02:03.644Z,76.50
2022-09-07T19:08:32.835Z,76.41
2022-09-07T19:11:34.431Z,76.28
2022-09-07T19:14:36.075Z,75.65
2022-09-07T19:17:38.562Z,73.88
2022-09-07T19:20:40.385Z,71.51
2022-09-07T19:23:42.498Z,68.96
2022-09-07T19:26:47.301Z,67.35
2022-09-07T19:29:49.470Z,66.20
2022-09-07T19:32:51.260Z,65.59
2022-09-07T19:35:52.869Z,65.33
2022-09-07T19:38:54.476Z,64.98
2022-09-07T19:41:56.623Z,65.43
2022-09-07T19:44:58.334Z,68.16
2022-09-07T19:47:59.921Z,69.29
2022-09-07T19:51:02.257Z,70.50
2022-09-07T19:54:06.454Z,72.03
2022-09-07T19:57:08.363Z,72.68
2022-09-07T20:00:10.724Z,72.71
2022-09-07T20:03:15.065Z,72.42
2022-09-07T20:06:18.660Z,72.43
2022-09-07T20:09:20.722Z,71.82
2022-09-07T20:12:22.390Z,72.06
2022-09-07T20:15:24.736Z,72.02
2022-09-07T20:18:27.671Z,72.53
2022-09-07T20:21:29.290Z,72.36
2022-09-07T20:24:31.339Z,70.46
2022-09-07T20:27:35.800Z,71.96
2022-09-07T20:30:43.109Z,71.45
2022-09-07T20:33:46.234Z,71.70
2022-09-07T20:36:51.841Z,71.17
2022-09-07T20:39:53.741Z,72.01
2022-09-07T20:42:55.425Z,74.23
2022-09-07T20:45:58.278Z,74.56
2022-09-07T20:49:01.100Z,73.17
2022-09-07T20:52:02.970Z,72.04
2022-09-07T20:55:05.100Z,71.15
2022-09-07T20:58:06.851Z,70.00
2022-09-07T21:01:09.489Z,69.04
2022-09-07T21:04:11.273Z,68.56
2022-09-07T21:07:12.912Z,69.02
2022-09-07T21:10:14.723Z,69.91
2022-09-07T21:13:16.440Z,71.17
2022-09-07T21:16:18.221Z,71.67
2022-09-07T21:19:19.986Z,71.72
2022-09-07T21:22:21.651Z,71.38
2022-09-07T21:25:23.663Z,70.34
2022-09-07T21:28:26.150Z,74.43
2022-09-07T21:31:29.401Z,76.43
2022-09-07T21:34:31.165Z,76.42
2022-09-07T21:37:32.807Z,77.44
2022-09-07T21:40:34.567Z,78.91
2022-09-07T21:43:36.586Z,80.67
2022-09-07T21:46:38.668Z,82.86
2022-09-07T21:49:40.466Z,84.24
2022-09-07T21:52:42.133Z,86.74
2022-09-07T21:55:43.873Z,88.98
2022-09-07T21:58:45.605Z,89.73
2022-09-07T22:01:47.391Z,89.20
2022-09-07T22:04:49.157Z,90.34
2022-09-07T22:07:50.787Z,90.36
2022-09-07T22:10:52.471Z,90.74
2022-09-07T22:14:00.310Z,91.01
2022-09-07T22:17:02.466Z,90.52
2022-09-07T22:20:04.428Z,87.96
2022-09-07T22:23:06.149Z,87.66
2022-09-07T22:26:08.667Z,87.86
2022-09-07T22:29:12.110Z,87.29
2022-09-07T22:32:13.744Z,86.39
2022-09-07T22:35:17.498Z,86.19
2022-09-07T22:38:19.394Z,87.83
2022-09-07T22:41:24.238Z,88.21
2022-09-07T22:44:26.911Z,90.01
2022-09-07T22:47:28.635Z,89.51
2022-09-07T22:50:31.925Z,91.69
2022-09-07T22:53:35.886Z,92.87
2022-09-07T22:56:39.089Z,93.91
2022-09-07T22:59:40.906Z,95.64
2022-09-07T23:02:42.589Z,96.33
2022-09-07T23:05:44.394Z,95.63
2022-09-07T23:08:46.019Z,95.19
2022-09-07T23:11:48.519Z,95.87
2022-09-07T23:14:50.535Z,96.74
2022-09-07T23:17:52.256Z,97.48
2022-09-07T23:21:00.411Z,97.55
2022-09-07T23:24:02.532Z,96.89
2022-09-07T23:27:04.293Z,95.89
2022-09-07T23:30:07.777Z,95.89
2022-09-07T23:33:09.443Z,94.74
2022-09-07T23:36:11.134Z,94.61
2022-09-07T23:39:12.945Z,94.18
2022-09-07T23:42:14.721Z,93.76
2022-09-07T23:45:16.422Z,93.84
2022-09-07T23:48:18.419Z,93.82
2022-09-07T23:51:23.878Z,94.70
2022-09-07T23:54:26.086Z,94.92
2022-09-07T23:57:27.912Z,94.24
